Strona główna
METAR-TAF:

METAR-TAF

Lotnisko :

Weipa, Australia

Szerokość geograficzna: 12-40-43S, Długość geograficzna: 141-55-31E, wysokość: 19 m

Aktualna obserwacja pogody

Raport powstał 34 minut temu, godzina 15:00 UTC
Wiatr 9 kt od południowy wschód
Temperatura 26°C
Wilgotność 65%
Ciśnienie 1012 hPa
Widzialność 10 km lub więcej
Zachmurzenie całkowite na wysokości 3100 ft

METAR: YBWP 091500Z AUTO 14009KT 9999 // OVC031 26/19 Q1012

czas: 01:34 (15:34 UTC)


TAF: brakujący

Obserwacja i prognoza pogody dla ponad 4000 lotnisk (raport METAR i TAF).

Dostępne stacje oznaczono żółtymi i czerwonymi punktami na mapie.

Najedź kursorem aby zobaczyć nazwę stacji.

Kliknij aby zobaczyć obserwacje i prognozy pogody.

Aby zmienić mapę: kliknij na zielony przycisk z czarnym krzyżykiem, aby powiększyć; na zielony przycisk z myślnikiem, aby pomniejszyć; na zielone strzałki, aby przejść do map sąsiednich.


METAR-TAF: